Wilson, Connecticut
Current Conditions -  °F | °C
As of 5:51 PM on Friday 19 Dec 2014 (Local Time) from KBDL Reporting Station
Overcast Overcast  
Wind Chill: 23°   Ceiling: 3700
Heat Index: 32°   Visibility: 10mi
Dew Point: 20°   Wind: 13mph
Humidity: 61%   Direction: 310°NW
Pressure: 30.07"   Gusts: NA
Location:  41.8596°N, 72.6791°W
Report Text: KBDL 192251Z 31011KT 10SM OVC037 00/M07 A3007 RMK AO2 SLP182 T00001067
Loading
Personal Weather Stations






























Interactive Weather Map New forecast layout! Learn more

10-Day Weather Forecast

Advertisements
Track Severe Weather on mobile